createdAt,value
2023-05-10T00:01:59.513Z,78.81
2023-05-10T00:05:02.823Z,78.82
2023-05-10T00:08:05.790Z,78.79
2023-05-10T00:11:08.518Z,79.52
2023-05-10T00:14:12.685Z,79.45
2023-05-10T00:17:15.724Z,79.48
2023-05-10T00:20:18.834Z,79.35
2023-05-10T00:23:21.870Z,79.35
2023-05-10T00:26:24.625Z,79.37
2023-05-10T00:29:30.507Z,79.48
2023-05-10T00:32:33.363Z,79.40
2023-05-10T00:35:36.211Z,79.64
2023-05-10T00:38:39.192Z,79.88
2023-05-10T00:41:41.930Z,79.79
2023-05-10T00:44:44.785Z,79.73
2023-05-10T00:47:47.805Z,79.97
2023-05-10T00:50:50.806Z,79.99
2023-05-10T00:53:55.072Z,80.52
2023-05-10T00:56:58.485Z,80.81
2023-05-10T01:00:02.516Z,80.74
2023-05-10T01:03:06.632Z,80.92
2023-05-10T01:06:11.046Z,80.87
2023-05-10T01:09:13.860Z,80.86
2023-05-10T01:12:16.688Z,80.77
2023-05-10T01:15:21.378Z,80.70
2023-05-10T01:18:25.804Z,80.44
2023-05-10T01:21:50.971Z,80.73
2023-05-10T01:25:09.161Z,80.20
2023-05-10T01:28:28.288Z,80.01
2023-05-10T01:32:15.918Z,80.27
2023-05-10T01:35:41.256Z,80.13
2023-05-10T01:38:51.578Z,80.57
2023-05-10T01:42:04.606Z,80.59
2023-05-10T01:45:13.141Z,80.57
2023-05-10T01:48:16.347Z,80.60
2023-05-10T01:51:25.005Z,81.44
2023-05-10T01:54:30.021Z,80.89
2023-05-10T01:57:36.186Z,81.12
2023-05-10T02:00:44.087Z,80.62
2023-05-10T02:03:48.888Z,81.54
2023-05-10T02:06:54.073Z,82.44
2023-05-10T02:09:56.863Z,82.90
2023-05-10T02:13:01.745Z,82.78
2023-05-10T02:16:06.597Z,82.71
2023-05-10T02:19:11.564Z,83.21
2023-05-10T02:22:16.512Z,82.14
2023-05-10T02:25:22.063Z,82.84
2023-05-10T02:28:27.246Z,82.45
2023-05-10T02:31:33.262Z,81.86
2023-05-10T02:34:36.496Z,81.60
2023-05-10T02:37:40.945Z,80.67
2023-05-10T02:40:45.666Z,81.90
2023-05-10T02:43:50.774Z,83.09
2023-05-10T02:46:53.982Z,83.84
2023-05-10T02:49:58.419Z,84.20
2023-05-10T02:53:05.593Z,83.90
2023-05-10T02:56:18.448Z,84.45
2023-05-10T02:59:21.468Z,83.57
2023-05-10T03:02:24.326Z,83.92
2023-05-10T03:05:27.084Z,83.91
2023-05-10T03:08:30.582Z,84.10
2023-05-10T03:12:03.959Z,84.59
2023-05-10T03:15:15.548Z,84.90
2023-05-10T03:18:24.463Z,84.84
2023-05-10T03:21:31.093Z,84.57
2023-05-10T03:24:36.469Z,84.66
2023-05-10T03:27:43.970Z,84.58
2023-05-10T03:30:47.389Z,84.31
2023-05-10T03:33:51.397Z,84.01
2023-05-10T03:36:59.870Z,83.97
2023-05-10T03:40:07.603Z,83.68
2023-05-10T03:43:12.665Z,83.60
2023-05-10T03:46:15.485Z,83.61
2023-05-10T03:49:18.663Z,83.48
2023-05-10T03:52:21.846Z,83.48
2023-05-10T03:55:24.996Z,83.36
2023-05-10T03:58:27.912Z,83.10
2023-05-10T04:01:30.727Z,82.97
2023-05-10T04:04:33.666Z,82.94
2023-05-10T04:07:36.370Z,82.64
2023-05-10T04:10:39.131Z,82.46
2023-05-10T04:13:41.937Z,82.53
2023-05-10T04:16:44.690Z,82.65
2023-05-10T04:19:47.440Z,82.21
2023-05-10T04:22:50.182Z,82.12
2023-05-10T04:25:53.009Z,81.85
2023-05-10T04:28:55.789Z,81.43
2023-05-10T04:31:58.904Z,80.80
2023-05-10T04:35:04.067Z,81.31
2023-05-10T04:38:06.788Z,81.40
2023-05-10T04:41:11.175Z,80.22
2023-05-10T04:44:13.933Z,79.86
2023-05-10T04:47:17.461Z,80.05
2023-05-10T04:50:20.723Z,79.90
2023-05-10T04:53:24.035Z,79.78
2023-05-10T04:56:26.779Z,79.17
2023-05-10T04:59:29.571Z,79.89
2023-05-10T05:02:32.431Z,78.63
2023-05-10T05:05:35.829Z,78.59
2023-05-10T05:08:38.628Z,78.70
2023-05-10T05:11:41.533Z,78.55
2023-05-10T05:14:47.070Z,78.06
2023-05-10T05:17:49.871Z,78.03
2023-05-10T05:20:52.737Z,76.98
2023-05-10T05:23:55.715Z,77.25
2023-05-10T05:26:58.404Z,76.24
2023-05-10T05:33:04.144Z,75.31
2023-05-10T05:36:07.423Z,74.56
2023-05-10T05:39:10.322Z,75.83
2023-05-10T05:42:14.392Z,74.10
2023-05-10T05:45:17.578Z,74.34
2023-05-10T05:48:21.261Z,73.81
2023-05-10T05:51:24.287Z,72.67
2023-05-10T05:54:28.348Z,73.10
2023-05-10T05:57:31.355Z,72.69
2023-05-10T06:00:34.195Z,71.56
2023-05-10T06:03:37.238Z,71.01
2023-05-10T06:06:40.267Z,71.41
2023-05-10T06:09:43.227Z,70.39
2023-05-10T06:12:46.243Z,70.14
2023-05-10T06:15:49.255Z,69.32
2023-05-10T06:18:52.268Z,69.50
2023-05-10T06:21:55.030Z,69.10
2023-05-10T06:24:57.914Z,68.72
2023-05-10T06:28:01.106Z,68.63
2023-05-10T06:31:06.124Z,68.74
2023-05-10T06:34:09.335Z,68.28
2023-05-10T06:37:13.578Z,67.80
2023-05-10T06:40:19.702Z,67.03
2023-05-10T06:43:23.840Z,65.74
2023-05-10T06:46:27.034Z,65.85
2023-05-10T06:49:29.872Z,64.99
2023-05-10T06:52:32.867Z,65.06
2023-05-10T06:55:55.739Z,63.99
2023-05-10T06:58:59.148Z,62.89
2023-05-10T07:02:02.088Z,63.68
2023-05-10T07:05:05.682Z,62.61
2023-05-10T07:08:09.522Z,63.07
2023-05-10T07:11:12.681Z,61.76
2023-05-10T07:14:15.608Z,61.52
2023-05-10T07:17:18.575Z,61.31
2023-05-10T07:20:22.731Z,60.82
2023-05-10T07:23:25.872Z,59.77
2023-05-10T07:26:29.572Z,58.59
2023-05-10T07:29:32.576Z,58.90
2023-05-10T07:32:35.608Z,59.45
2023-05-10T07:35:39.013Z,58.75
2023-05-10T07:38:42.359Z,57.08
2023-05-10T07:41:45.251Z,57.62
2023-05-10T07:44:48.333Z,57.34
2023-05-10T07:47:52.683Z,56.07
2023-05-10T07:50:55.645Z,55.61
2023-05-10T07:53:59.141Z,56.04
2023-05-10T07:57:02.721Z,55.49
2023-05-10T08:00:06.659Z,55.73
2023-05-10T08:03:16.298Z,55.76
2023-05-10T08:06:20.800Z,55.55
2023-05-10T08:09:25.363Z,54.16
2023-05-10T08:12:28.414Z,54.90
2023-05-10T08:15:31.246Z,55.02
2023-05-10T08:18:35.003Z,55.05
2023-05-10T08:21:39.584Z,55.26
2023-05-10T08:24:43.119Z,54.32
2023-05-10T08:27:45.987Z,54.25
2023-05-10T08:30:51.319Z,54.06
2023-05-10T08:33:54.435Z,52.80
2023-05-10T08:36:57.241Z,54.32
2023-05-10T08:40:00.119Z,53.06
2023-05-10T08:43:08.388Z,52.72
2023-05-10T08:46:11.888Z,52.05
2023-05-10T08:49:21.261Z,52.92
2023-05-10T08:52:27.238Z,52.43
2023-05-10T08:55:30.008Z,53.19
2023-05-10T08:58:33.239Z,52.48
2023-05-10T09:01:37.907Z,52.73
2023-05-10T09:04:40.877Z,52.26
2023-05-10T09:07:43.640Z,53.10
2023-05-10T09:10:50.439Z,52.21
2023-05-10T09:13:53.745Z,50.21
2023-05-10T09:16:57.464Z,50.55
2023-05-10T09:20:09.184Z,51.85
2023-05-10T09:23:12.072Z,52.58
2023-05-10T09:26:14.907Z,51.65
2023-05-10T09:29:18.209Z,53.82
2023-05-10T09:32:21.211Z,52.93
2023-05-10T09:35:29.632Z,53.64
2023-05-10T09:38:46.427Z,53.88
2023-05-10T09:41:49.494Z,52.43
2023-05-10T09:44:52.191Z,51.75
2023-05-10T09:47:55.389Z,52.09
2023-05-10T09:50:59.405Z,51.36
2023-05-10T09:54:15.948Z,52.47
2023-05-10T09:57:23.198Z,51.88
2023-05-10T10:00:28.445Z,49.98
2023-05-10T10:03:31.399Z,52.50
2023-05-10T10:06:41.068Z,51.80
2023-05-10T10:09:43.857Z,49.24
2023-05-10T10:12:46.660Z,50.09
2023-05-10T10:15:52.361Z,49.26
2023-05-10T10:18:55.528Z,47.44
2023-05-10T10:21:58.363Z,46.61
2023-05-10T10:25:01.654Z,48.22
2023-05-10T10:28:33.567Z,48.32
2023-05-10T10:32:11.302Z,47.04
2023-05-10T10:35:17.190Z,46.96
2023-05-10T10:38:20.184Z,48.15
2023-05-10T10:41:37.230Z,48.27
2023-05-10T10:44:40.372Z,47.40
2023-05-10T10:47:44.673Z,47.47
2023-05-10T10:50:47.871Z,45.88
2023-05-10T10:53:50.688Z,46.34
2023-05-10T10:57:13.480Z,47.53
2023-05-10T11:00:28.510Z,47.68
2023-05-10T11:03:31.330Z,47.41
2023-05-10T11:06:35.950Z,46.17
2023-05-10T11:09:41.720Z,46.89
2023-05-10T11:12:55.265Z,48.11
2023-05-10T11:15:59.942Z,46.70
2023-05-10T11:19:04.067Z,46.37
2023-05-10T11:22:06.900Z,48.31
2023-05-10T11:25:10.024Z,46.87
2023-05-10T11:28:13.807Z,47.00
2023-05-10T11:31:18.213Z,46.28
2023-05-10T11:34:28.433Z,47.23
2023-05-10T11:37:35.311Z,46.58
2023-05-10T11:40:39.236Z,45.05
2023-05-10T11:43:43.048Z,46.38
2023-05-10T11:46:46.098Z,46.60
2023-05-10T11:49:49.571Z,46.18
2023-05-10T11:52:56.500Z,46.57
2023-05-10T11:56:09.588Z,44.09
2023-05-10T11:59:15.906Z,41.75
2023-05-10T12:02:18.768Z,44.17
2023-05-10T12:05:21.963Z,42.87
2023-05-10T12:08:26.743Z,41.49
2023-05-10T12:11:30.976Z,40.01
2023-05-10T12:14:36.229Z,39.69
2023-05-10T12:17:41.949Z,42.48
2023-05-10T12:20:46.193Z,40.27
2023-05-10T12:23:53.673Z,43.16
2023-05-10T12:26:56.687Z,42.09
2023-05-10T12:30:00.990Z,43.04
2023-05-10T12:33:16.277Z,42.24
2023-05-10T12:36:25.158Z,43.28
2023-05-10T12:39:38.251Z,42.78
2023-05-10T12:42:41.665Z,42.83
2023-05-10T12:45:49.067Z,42.26
2023-05-10T12:49:07.636Z,41.96
2023-05-10T12:52:11.658Z,41.40
2023-05-10T12:55:14.603Z,40.71
2023-05-10T12:58:31.465Z,41.45
2023-05-10T13:01:38.227Z,40.36
2023-05-10T13:04:41.178Z,39.66
2023-05-10T13:07:45.008Z,40.89
2023-05-10T13:10:47.784Z,41.48
2023-05-10T13:13:50.621Z,39.73
2023-05-10T13:16:54.473Z,39.92
2023-05-10T13:19:58.045Z,39.40
2023-05-10T13:23:01.520Z,38.15
2023-05-10T13:26:04.530Z,37.97
2023-05-10T13:29:07.721Z,35.86
2023-05-10T13:32:10.456Z,37.52
2023-05-10T13:35:13.254Z,38.00
2023-05-10T13:38:15.959Z,35.96
2023-05-10T13:41:18.803Z,35.93
2023-05-10T13:44:21.740Z,35.66
2023-05-10T13:47:24.456Z,34.24
2023-05-10T13:50:28.073Z,34.33
2023-05-10T13:53:31.043Z,33.31
2023-05-10T13:56:35.744Z,35.00
2023-05-10T13:59:38.580Z,35.67
2023-05-10T14:02:41.950Z,38.32
2023-05-10T14:05:46.166Z,37.96
2023-05-10T14:08:48.978Z,39.27
2023-05-10T14:11:52.232Z,39.13
2023-05-10T14:14:54.915Z,40.46
2023-05-10T14:17:57.682Z,41.66
2023-05-10T14:21:00.648Z,40.25
2023-05-10T14:24:03.440Z,40.65
2023-05-10T14:27:07.152Z,39.78
2023-05-10T14:30:10.404Z,37.33
2023-05-10T14:33:13.589Z,35.95
2023-05-10T14:36:17.323Z,34.30
2023-05-10T14:39:20.518Z,37.15
2023-05-10T14:42:23.203Z,37.98
2023-05-10T14:45:25.915Z,36.97
2023-05-10T14:48:28.657Z,36.70
2023-05-10T14:51:31.385Z,34.19
2023-05-10T14:54:37.221Z,33.48
2023-05-10T14:57:40.149Z,34.79
2023-05-10T15:00:43.098Z,34.20
2023-05-10T15:03:46.352Z,36.69
2023-05-10T15:06:49.460Z,38.65
2023-05-10T15:09:52.976Z,38.64
2023-05-10T15:12:55.738Z,36.33
2023-05-10T15:15:58.514Z,38.42
2023-05-10T15:19:01.396Z,39.74
2023-05-10T15:22:06.105Z,39.58
2023-05-10T15:25:09.259Z,38.58
2023-05-10T15:28:11.960Z,38.93
2023-05-10T15:31:14.784Z,38.93
2023-05-10T15:34:18.979Z,40.02
2023-05-10T15:37:22.424Z,40.34
2023-05-10T15:40:25.124Z,41.18
2023-05-10T15:43:28.108Z,41.07
2023-05-10T15:46:31.643Z,40.70
2023-05-10T15:49:34.905Z,40.82
2023-05-10T15:52:37.732Z,41.36
2023-05-10T15:55:40.626Z,40.81
2023-05-10T15:58:44.174Z,41.33
2023-05-10T16:01:47.037Z,38.39
2023-05-10T16:04:49.739Z,37.00
2023-05-10T16:07:52.538Z,37.24
2023-05-10T16:10:55.246Z,38.98
2023-05-10T16:13:58.006Z,39.69
2023-05-10T16:17:00.867Z,40.12
2023-05-10T16:20:03.908Z,41.20
2023-05-10T16:23:07.806Z,41.52
2023-05-10T16:26:10.621Z,42.62
2023-05-10T16:29:13.384Z,42.65
2023-05-10T16:32:16.091Z,43.00
2023-05-10T16:35:18.945Z,42.73
2023-05-10T16:38:22.238Z,43.02
2023-05-10T16:41:24.982Z,42.61
2023-05-10T16:44:27.782Z,43.00
2023-05-10T16:47:30.508Z,44.07
2023-05-10T16:50:33.331Z,44.19
2023-05-10T16:53:36.493Z,44.02
2023-05-10T16:56:39.192Z,44.37
2023-05-10T16:59:41.971Z,45.48
2023-05-10T17:02:44.772Z,45.49
2023-05-10T17:05:47.618Z,45.84
2023-05-10T17:08:50.409Z,46.16
2023-05-10T17:11:53.134Z,47.01
2023-05-10T17:14:55.921Z,46.78
2023-05-10T17:17:58.767Z,46.86
2023-05-10T17:21:01.538Z,46.96
2023-05-10T17:24:04.337Z,47.49
2023-05-10T17:27:07.218Z,47.44
2023-05-10T17:30:10.345Z,47.42
2023-05-10T17:33:13.065Z,48.16
2023-05-10T17:36:15.790Z,48.15
2023-05-10T17:39:18.566Z,48.74
2023-05-10T17:42:21.414Z,48.77
2023-05-10T17:45:24.100Z,49.21
2023-05-10T17:48:26.847Z,49.44
2023-05-10T17:51:29.668Z,50.18
2023-05-10T17:54:32.412Z,50.66
2023-05-10T17:57:38.134Z,51.16
2023-05-10T18:00:41.009Z,51.33
2023-05-10T18:03:43.694Z,51.95
2023-05-10T18:06:46.360Z,52.03
2023-05-10T18:09:49.018Z,52.46
2023-05-10T18:12:52.493Z,53.18
2023-05-10T18:15:55.218Z,53.54
2023-05-10T18:18:58.250Z,53.95
2023-05-10T18:22:01.046Z,54.00
2023-05-10T18:25:04.695Z,54.66
2023-05-10T18:28:08.443Z,54.95
2023-05-10T18:31:11.266Z,54.99
2023-05-10T18:34:14.002Z,55.44
2023-05-10T18:37:17.098Z,56.04
2023-05-10T18:40:20.012Z,56.31
2023-05-10T18:43:22.760Z,56.28
2023-05-10T18:46:25.626Z,56.40
2023-05-10T18:49:29.492Z,56.50
2023-05-10T18:52:32.653Z,56.56
2023-05-10T18:55:35.384Z,56.86
2023-05-10T18:58:38.590Z,57.24
2023-05-10T19:01:41.916Z,57.06
2023-05-10T19:04:44.860Z,57.56
2023-05-10T19:07:47.893Z,57.43
2023-05-10T19:10:50.950Z,58.14
2023-05-10T19:13:53.614Z,58.10
2023-05-10T19:16:56.446Z,58.15
2023-05-10T19:20:00.136Z,58.39
2023-05-10T19:26:12.480Z,58.93
2023-05-10T19:29:15.308Z,59.16
2023-05-10T19:32:18.261Z,59.24
2023-05-10T19:35:21.394Z,59.51
2023-05-10T19:38:25.533Z,59.26
2023-05-10T19:41:28.742Z,59.36
2023-05-10T19:44:31.806Z,59.64
2023-05-10T19:47:36.388Z,59.93
2023-05-10T19:50:39.204Z,60.03
2023-05-10T19:53:44.875Z,60.12
2023-05-10T19:56:48.031Z,60.23
2023-05-10T19:59:50.782Z,59.93
2023-05-10T20:02:54.169Z,60.50
2023-05-10T20:05:57.476Z,60.43
2023-05-10T20:09:00.502Z,60.43
2023-05-10T20:12:03.420Z,60.49
2023-05-10T20:15:07.911Z,60.56
2023-05-10T20:18:11.067Z,60.79
2023-05-10T20:21:13.795Z,61.09
2023-05-10T20:24:16.512Z,60.84
2023-05-10T20:27:21.176Z,61.35
2023-05-10T20:30:24.170Z,61.65
2023-05-10T20:33:26.912Z,61.95
2023-05-10T20:36:30.286Z,62.49
2023-05-10T20:39:33.144Z,63.26
2023-05-10T20:42:36.233Z,62.91
2023-05-10T20:45:38.992Z,63.22
2023-05-10T20:48:41.732Z,63.73
2023-05-10T20:51:44.475Z,63.72
2023-05-10T20:54:47.145Z,63.62
2023-05-10T20:57:49.843Z,63.75
2023-05-10T21:00:52.558Z,63.73
2023-05-10T21:03:55.206Z,64.20
2023-05-10T21:06:58.029Z,64.33
2023-05-10T21:10:00.853Z,64.15
2023-05-10T21:13:03.628Z,64.93
2023-05-10T21:16:06.577Z,64.79
2023-05-10T21:19:09.380Z,64.80
2023-05-10T21:22:12.104Z,64.78
2023-05-10T21:25:14.790Z,65.10
2023-05-10T21:28:17.473Z,65.08
2023-05-10T21:31:20.370Z,65.33
2023-05-10T21:34:23.098Z,65.53
2023-05-10T21:37:25.833Z,65.53
2023-05-10T21:40:29.157Z,65.70
2023-05-10T21:43:31.869Z,66.08
2023-05-10T21:46:34.594Z,66.23
2023-05-10T21:49:37.310Z,65.79
2023-05-10T21:52:40.158Z,65.53
2023-05-10T21:55:42.821Z,65.21
2023-05-10T21:58:45.822Z,64.96
2023-05-10T22:01:48.697Z,64.91
2023-05-10T22:04:51.613Z,64.79
2023-05-10T22:07:54.286Z,64.71
2023-05-10T22:10:56.945Z,64.69
2023-05-10T22:13:59.721Z,64.71
2023-05-10T22:17:02.479Z,64.81
2023-05-10T22:20:07.448Z,64.75
2023-05-10T22:23:10.171Z,64.86
2023-05-10T22:26:12.989Z,64.60
2023-05-10T22:29:15.760Z,64.70
2023-05-10T22:32:18.625Z,64.60
2023-05-10T22:35:22.151Z,64.78
2023-05-10T22:38:24.833Z,64.74
2023-05-10T22:41:27.537Z,65.40
2023-05-10T22:44:30.285Z,64.88
2023-05-10T22:47:33.796Z,64.90
2023-05-10T22:50:37.254Z,64.50
2023-05-10T22:53:39.966Z,64.63
2023-05-10T22:56:42.782Z,64.53
2023-05-10T22:59:45.559Z,64.33
2023-05-10T23:02:48.338Z,63.99
2023-05-10T23:05:51.211Z,64.32
2023-05-10T23:08:54.825Z,64.21
2023-05-10T23:11:57.561Z,64.06
2023-05-10T23:15:00.210Z,64.68
2023-05-10T23:18:02.977Z,64.21
2023-05-10T23:21:06.105Z,64.12
2023-05-10T23:24:08.913Z,63.83
2023-05-10T23:27:11.687Z,64.24
2023-05-10T23:30:14.683Z,64.15
2023-05-10T23:33:17.398Z,64.40
2023-05-10T23:36:20.073Z,64.30
2023-05-10T23:39:22.786Z,63.91
2023-05-10T23:42:25.691Z,63.94
2023-05-10T23:45:28.485Z,63.70
2023-05-10T23:48:31.410Z,63.89
2023-05-10T23:51:34.187Z,63.77
2023-05-10T23:54:37.041Z,63.92
2023-05-10T23:57:40.015Z,64.00
